»·PEaware :: N973BB KSBA-KSNA

N973BB :: KSBA-KSNA

FLIGHT INFORMATION

Flight Status: Arrived
Operator: Privately registered:
United States
More flights under this callsign
Pilot: Skye D. (10623)
Aircraft: MITSUBISHI MU-2 MARQUISE
(MU2)
More flights by this aircraft type
Origin: KSBA Santa Barbara Mun
United States
Destination: KSNA John Wayne-Orange Co
United States
More flights between these airports :: More routes between these airports
Route: KWANG VTU V208 SXC SLI
File this flight plan on PilotEdge
Remarks: SBAP8
Altitude:
(Current/Filed)
9,000ft
Speed:
(Current/Filed)
200kts
Departed: 03-Dec-18 12:00 PM
Arrived: 03-Dec-18 12:38 PM
Distance/Time
Traveled:
108nm/0:38
Distance/Time
To Go:
Arrived

Flight Plot

Page will automatically refresh every two minutes.


Map Options




Map Legend


Flown Route
Filed Route
Departure Airport
Arrival Airport
Navaid (VOR, NDB)
Fix

Horizontal Profiles

Position Reports

Time Latitude Longitude Heading Altitude Ground
Speed
03-Dec-18 11:36 34.432564 -119.835106 71 13ft 0kts
03-Dec-18 11:37 34.432564 -119.835106 71 13ft 0kts
03-Dec-18 11:38 34.432564 -119.835106 71 13ft 0kts
03-Dec-18 11:39 34.432564 -119.835106 71 13ft 0kts
03-Dec-18 11:40 34.432564 -119.835106 71 13ft 0kts
03-Dec-18 11:41 34.432564 -119.835106 71 13ft 0kts
03-Dec-18 11:42 34.432564 -119.835106 71 13ft 0kts
03-Dec-18 11:43 34.432564 -119.835106 71 13ft 0kts
03-Dec-18 11:44 34.432564 -119.835106 71 13ft 0kts
03-Dec-18 11:45 34.432564 -119.835106 71 13ft 0kts
03-Dec-18 11:46 34.432564 -119.835106 71 13ft 0kts
03-Dec-18 11:47 34.432564 -119.835106 72 13ft 0kts
03-Dec-18 11:48 34.432564 -119.835106 72 13ft 0kts
03-Dec-18 11:49 34.432564 -119.835106 72 13ft 0kts
03-Dec-18 11:50 34.432564 -119.835106 72 13ft 0kts
03-Dec-18 11:51 34.432564 -119.835106 72 13ft 0kts
03-Dec-18 11:52 34.432564 -119.835106 72 13ft 0kts
03-Dec-18 11:53 34.432564 -119.835106 72 13ft 0kts
03-Dec-18 11:54 34.432564 -119.835106 72 13ft 0kts
03-Dec-18 11:55 34.432564 -119.835106 72 13ft 0kts
03-Dec-18 11:56 34.432564 -119.835106 72 13ft 0kts
03-Dec-18 11:57 34.432591 -119.834946 117 13ft 1kts
03-Dec-18 11:58 34.432397 -119.834726 161 13ft 0kts
03-Dec-18 11:59 34.432039 -119.835164 252 13ft 11kts
03-Dec-18 12:00 34.431024 -119.838718 252 13ft 11kts
03-Dec-18 12:01 34.430683 -119.839826 247 13ft 0kts
03-Dec-18 12:02 34.430556 -119.840206 248 13ft 1kts
03-Dec-18 12:03 34.428659 -119.839694 163 13ft 74kts
03-Dec-18 12:04 34.392243 -119.830662 167 1582ft 157kts
03-Dec-18 12:05 34.344849 -119.801067 120 3026ft 177kts
03-Dec-18 12:06 34.334409 -119.752565 102 4496ft 182kts
03-Dec-18 12:07 34.326948 -119.679827 100 6852ft 192kts
03-Dec-18 12:08 34.321046 -119.624782 100 7984ft 214kts
03-Dec-18 12:09 34.312886 -119.549120 99 8673ft 231kts
03-Dec-18 12:10 34.292148 -119.473351 116 9020ft 253kts
03-Dec-18 12:11 34.259776 -119.395412 115 9023ft 265kts
03-Dec-18 12:12 34.227482 -119.317894 115 9021ft 270kts
03-Dec-18 12:13 34.195116 -119.240405 115 9021ft 271kts
03-Dec-18 12:14 34.161149 -119.159255 116 9023ft 272kts
03-Dec-18 12:15 34.127033 -119.077942 116 9026ft 272kts
03-Dec-18 12:16 34.062825 -119.044512 176 9030ft 266kts
03-Dec-18 12:17 33.990160 -119.036388 177 9030ft 266kts
03-Dec-18 12:18 33.916988 -119.028701 177 9030ft 266kts
03-Dec-18 12:19 33.846141 -119.021289 177 9029ft 266kts
03-Dec-18 12:20 33.778452 -118.995614 133 9034ft 270kts
03-Dec-18 12:21 33.729929 -118.927491 130 9029ft 272kts
03-Dec-18 12:22 33.681517 -118.857887 129 9026ft 273kts
03-Dec-18 12:23 33.632552 -118.787571 129 9045ft 274kts
03-Dec-18 12:24 33.583686 -118.717491 128 9057ft 275kts
03-Dec-18 12:25 33.561263 -118.637944 73 9061ft 264kts
03-Dec-18 12:26 33.578560 -118.552208 72 9057ft 265kts
03-Dec-18 12:27 33.595882 -118.467575 72 8189ft 260kts
03-Dec-18 12:28 33.613329 -118.385227 72 6685ft 252kts
03-Dec-18 12:29 33.630342 -118.309276 73 5152ft 245kts
03-Dec-18 12:30 33.648103 -118.233306 72 4021ft 221kts
03-Dec-18 12:31 33.663696 -118.166149 72 4019ft 207kts
03-Dec-18 12:32 33.678122 -118.104416 72 4012ft 183kts
03-Dec-18 12:33 33.691646 -118.046700 72 4018ft 189kts
03-Dec-18 12:34 33.706134 -117.985390 72 4016ft 195kts
03-Dec-18 12:35 33.720689 -117.923964 72 3821ft 186kts
03-Dec-18 12:36 33.751048 -117.876567 42 3111ft 185kts
03-Dec-18 12:37 33.787696 -117.835752 80 2562ft 181kts
03-Dec-18 12:38 33.753568 -117.820703 204 2170ft 176kts
03-Dec-18 12:39 33.711563 -117.846528 207 845ft 162kts
03-Dec-18 12:40 33.680448 -117.865813 208 72ft 103kts
03-Dec-18 12:41 33.674220 -117.870789 289 60ft 0kts
03-Dec-18 12:42 33.674222 -117.870797 289 60ft 0kts
03-Dec-18 12:43 33.672828 -117.872162 207 60ft 20kts
03-Dec-18 12:44 33.672632 -117.873136 25 60ft 0kts
03-Dec-18 12:45 33.672632 -117.873136 25 60ft 0kts

Navigation Log

Ident Type
Flight plan parsing failed, navigation log unavailable